sensor_id;sensor_type;location;lat;lon;timestamp;P1;durP1;ratioP1;P2;durP2;ratioP2
15848;SDS011;8024;48.708;9.394;2023-02-01T00:02:27;3.87;;;2.40;;
15848;SDS011;8024;48.708;9.394;2023-02-01T00:04:55;2.50;;;2.30;;
15848;SDS011;8024;48.708;9.394;2023-02-01T00:07:22;3.53;;;2.77;;
15848;SDS011;8024;48.708;9.394;2023-02-01T00:09:50;2.87;;;2.67;;
15848;SDS011;8024;48.708;9.394;2023-02-01T00:12:17;3.87;;;2.90;;
15848;SDS011;8024;48.708;9.394;2023-02-01T00:14:44;3.70;;;2.90;;
15848;SDS011;8024;48.708;9.394;2023-02-01T00:17:13;1.97;;;1.83;;
15848;SDS011;8024;48.708;9.394;2023-02-01T00:19:40;3.07;;;2.47;;
15848;SDS011;8024;48.708;9.394;2023-02-01T00:22:09;2.30;;;2.20;;
15848;SDS011;8024;48.708;9.394;2023-02-01T00:24:36;2.43;;;2.23;;
15848;SDS011;8024;48.708;9.394;2023-02-01T00:27:03;4.10;;;2.10;;
15848;SDS011;8024;48.708;9.394;2023-02-01T00:29:30;2.43;;;2.23;;
15848;SDS011;8024;48.708;9.394;2023-02-01T00:31:58;2.37;;;2.17;;
15848;SDS011;8024;48.708;9.394;2023-02-01T00:34:25;2.83;;;2.70;;
15848;SDS011;8024;48.708;9.394;2023-02-01T00:36:52;2.83;;;2.60;;
15848;SDS011;8024;48.708;9.394;2023-02-01T00:39:20;3.03;;;2.20;;
15848;SDS011;8024;48.708;9.394;2023-02-01T00:41:48;2.50;;;2.20;;
15848;SDS011;8024;48.708;9.394;2023-02-01T00:44:15;2.30;;;2.10;;
15848;SDS011;8024;48.708;9.394;2023-02-01T00:46:42;2.57;;;2.37;;
15848;SDS011;8024;48.708;9.394;2023-02-01T00:49:09;2.57;;;2.23;;
15848;SDS011;8024;48.708;9.394;2023-02-01T00:51:36;2.40;;;2.20;;
15848;SDS011;8024;48.708;9.394;2023-02-01T00:54:03;2.13;;;1.93;;
15848;SDS011;8024;48.708;9.394;2023-02-01T00:56:32;2.10;;;1.77;;
15848;SDS011;8024;48.708;9.394;2023-02-01T00:58:59;3.43;;;2.00;;
15848;SDS011;8024;48.708;9.394;2023-02-01T01:01:26;3.20;;;2.00;;
15848;SDS011;8024;48.708;9.394;2023-02-01T01:03:55;2.50;;;2.07;;
15848;SDS011;8024;48.708;9.394;2023-02-01T01:06:24;1.70;;;1.60;;
15848;SDS011;8024;48.708;9.394;2023-02-01T01:08:53;1.97;;;1.87;;
15848;SDS011;8024;48.708;9.394;2023-02-01T01:11:24;2.47;;;1.97;;
15848;SDS011;8024;48.708;9.394;2023-02-01T01:13:54;1.53;;;1.43;;
15848;SDS011;8024;48.708;9.394;2023-02-01T01:16:23;2.07;;;1.87;;
15848;SDS011;8024;48.708;9.394;2023-02-01T01:18:52;2.37;;;2.17;;
15848;SDS011;8024;48.708;9.394;2023-02-01T01:21:20;2.13;;;2.03;;
15848;SDS011;8024;48.708;9.394;2023-02-01T01:23:47;2.50;;;1.97;;
15848;SDS011;8024;48.708;9.394;2023-02-01T01:26:15;1.73;;;1.63;;
15848;SDS011;8024;48.708;9.394;2023-02-01T01:28:43;1.90;;;1.80;;
15848;SDS011;8024;48.708;9.394;2023-02-01T01:31:13;2.97;;;1.93;;
15848;SDS011;8024;48.708;9.394;2023-02-01T01:33:41;2.30;;;2.17;;
15848;SDS011;8024;48.708;9.394;2023-02-01T01:36:09;2.50;;;1.80;;
15848;SDS011;8024;48.708;9.394;2023-02-01T01:38:37;1.83;;;1.73;;
15848;SDS011;8024;48.708;9.394;2023-02-01T01:41:05;1.57;;;1.47;;
15848;SDS011;8024;48.708;9.394;2023-02-01T01:46:32;1.80;;;1.70;;
15848;SDS011;8024;48.708;9.394;2023-02-01T01:49:02;2.20;;;1.70;;
15848;SDS011;8024;48.708;9.394;2023-02-01T01:51:34;1.40;;;1.30;;
15848;SDS011;8024;48.708;9.394;2023-02-01T01:54:06;1.63;;;1.53;;
15848;SDS011;8024;48.708;9.394;2023-02-01T01:56:38;2.13;;;1.93;;
15848;SDS011;8024;48.708;9.394;2023-02-01T01:59:06;1.80;;;1.70;;
15848;SDS011;8024;48.708;9.394;2023-02-01T02:01:36;2.67;;;2.13;;
15848;SDS011;8024;48.708;9.394;2023-02-01T02:04:03;2.30;;;2.10;;
15848;SDS011;8024;48.708;9.394;2023-02-01T02:06:34;1.47;;;1.37;;
15848;SDS011;8024;48.708;9.394;2023-02-01T02:09:10;1.90;;;1.80;;
15848;SDS011;8024;48.708;9.394;2023-02-01T02:11:37;1.90;;;1.57;;
15848;SDS011;8024;48.708;9.394;2023-02-01T02:14:05;1.57;;;1.30;;
15848;SDS011;8024;48.708;9.394;2023-02-01T02:19:52;1.90;;;1.67;;
15848;SDS011;8024;48.708;9.394;2023-02-01T02:25:53;1.83;;;1.63;;
15848;SDS011;8024;48.708;9.394;2023-02-01T02:29:18;1.83;;;1.67;;
15848;SDS011;8024;48.708;9.394;2023-02-01T02:32:32;1.37;;;1.33;;
15848;SDS011;8024;48.708;9.394;2023-02-01T02:35:16;1.87;;;1.70;;
15848;SDS011;8024;48.708;9.394;2023-02-01T02:37:51;1.37;;;1.27;;
15848;SDS011;8024;48.708;9.394;2023-02-01T02:40:24;1.50;;;1.40;;
15848;SDS011;8024;48.708;9.394;2023-02-01T02:42:58;1.43;;;1.43;;
15848;SDS011;8024;48.708;9.394;2023-02-01T02:45:50;1.60;;;1.50;;
15848;SDS011;8024;48.708;9.394;2023-02-01T02:48:42;1.20;;;1.10;;
15848;SDS011;8024;48.708;9.394;2023-02-01T02:51:14;1.47;;;1.37;;
15848;SDS011;8024;48.708;9.394;2023-02-01T02:54:05;1.23;;;1.20;;
15848;SDS011;8024;48.708;9.394;2023-02-01T02:56:52;1.23;;;1.23;;
15848;SDS011;8024;48.708;9.394;2023-02-01T02:59:39;1.70;;;1.57;;
15848;SDS011;8024;48.708;9.394;2023-02-01T03:02:26;2.30;;;1.47;;
15848;SDS011;8024;48.708;9.394;2023-02-01T03:05:12;1.63;;;1.53;;
15848;SDS011;8024;48.708;9.394;2023-02-01T03:07:55;1.53;;;1.43;;
15848;SDS011;8024;48.708;9.394;2023-02-01T03:10:30;1.87;;;1.70;;
15848;SDS011;8024;48.708;9.394;2023-02-01T03:13:04;1.60;;;1.50;;
15848;SDS011;8024;48.708;9.394;2023-02-01T03:15:35;1.97;;;1.80;;
15848;SDS011;8024;48.708;9.394;2023-02-01T03:18:06;1.37;;;1.27;;
15848;SDS011;8024;48.708;9.394;2023-02-01T03:20:39;1.70;;;1.60;;
15848;SDS011;8024;48.708;9.394;2023-02-01T03:23:12;1.90;;;1.80;;
15848;SDS011;8024;48.708;9.394;2023-02-01T03:25:42;1.83;;;1.73;;
15848;SDS011;8024;48.708;9.394;2023-02-01T03:28:09;2.20;;;2.10;;
15848;SDS011;8024;48.708;9.394;2023-02-01T03:30:37;2.03;;;1.93;;
15848;SDS011;8024;48.708;9.394;2023-02-01T03:33:08;1.90;;;1.80;;
15848;SDS011;8024;48.708;9.394;2023-02-01T03:35:47;2.40;;;2.20;;
15848;SDS011;8024;48.708;9.394;2023-02-01T03:38:22;2.63;;;1.90;;
15848;SDS011;8024;48.708;9.394;2023-02-01T03:40:53;2.47;;;2.07;;
15848;SDS011;8024;48.708;9.394;2023-02-01T03:43:27;2.20;;;1.90;;
15848;SDS011;8024;48.708;9.394;2023-02-01T03:45:57;1.97;;;1.87;;
15848;SDS011;8024;48.708;9.394;2023-02-01T03:48:27;2.00;;;1.90;;
15848;SDS011;8024;48.708;9.394;2023-02-01T03:50:56;1.93;;;1.83;;
15848;SDS011;8024;48.708;9.394;2023-02-01T03:53:27;2.37;;;2.10;;
15848;SDS011;8024;48.708;9.394;2023-02-01T03:55:56;2.67;;;2.43;;
15848;SDS011;8024;48.708;9.394;2023-02-01T03:58:24;1.80;;;1.70;;
15848;SDS011;8024;48.708;9.394;2023-02-01T04:00:51;1.67;;;1.57;;
15848;SDS011;8024;48.708;9.394;2023-02-01T04:03:19;2.33;;;2.10;;
15848;SDS011;8024;48.708;9.394;2023-02-01T04:05:47;1.90;;;1.80;;
15848;SDS011;8024;48.708;9.394;2023-02-01T04:08:15;2.03;;;1.83;;
15848;SDS011;8024;48.708;9.394;2023-02-01T04:10:43;2.07;;;1.90;;
15848;SDS011;8024;48.708;9.394;2023-02-01T04:13:10;2.40;;;2.07;;
15848;SDS011;8024;48.708;9.394;2023-02-01T04:15:38;1.97;;;1.80;;
15848;SDS011;8024;48.708;9.394;2023-02-01T04:18:05;2.37;;;2.17;;
15848;SDS011;8024;48.708;9.394;2023-02-01T04:20:32;1.90;;;1.80;;
15848;SDS011;8024;48.708;9.394;2023-02-01T04:22:59;1.57;;;1.47;;
15848;SDS011;8024;48.708;9.394;2023-02-01T04:25:28;2.50;;;2.30;;
15848;SDS011;8024;48.708;9.394;2023-02-01T04:27:56;2.17;;;1.93;;
15848;SDS011;8024;48.708;9.394;2023-02-01T04:30:24;1.53;;;1.47;;
15848;SDS011;8024;48.708;9.394;2023-02-01T04:32:51;1.80;;;1.70;;
15848;SDS011;8024;48.708;9.394;2023-02-01T04:35:18;2.07;;;1.73;;
15848;SDS011;8024;48.708;9.394;2023-02-01T04:37:45;1.93;;;1.80;;
15848;SDS011;8024;48.708;9.394;2023-02-01T04:40:13;2.03;;;1.80;;
15848;SDS011;8024;48.708;9.394;2023-02-01T04:42:40;1.80;;;1.70;;
15848;SDS011;8024;48.708;9.394;2023-02-01T04:45:09;1.87;;;1.77;;
15848;SDS011;8024;48.708;9.394;2023-02-01T04:47:36;2.23;;;1.60;;
15848;SDS011;8024;48.708;9.394;2023-02-01T04:50:04;2.73;;;1.93;;
15848;SDS011;8024;48.708;9.394;2023-02-01T04:52:32;1.73;;;1.63;;
15848;SDS011;8024;48.708;9.394;2023-02-01T04:55:00;2.30;;;1.33;;
15848;SDS011;8024;48.708;9.394;2023-02-01T04:57:28;1.83;;;1.73;;
15848;SDS011;8024;48.708;9.394;2023-02-01T04:59:55;2.07;;;1.37;;
15848;SDS011;8024;48.708;9.394;2023-02-01T05:02:23;1.60;;;1.50;;
15848;SDS011;8024;48.708;9.394;2023-02-01T05:04:51;2.17;;;1.60;;
15848;SDS011;8024;48.708;9.394;2023-02-01T05:07:19;1.67;;;1.40;;
15848;SDS011;8024;48.708;9.394;2023-02-01T05:09:46;1.57;;;1.47;;
15848;SDS011;8024;48.708;9.394;2023-02-01T05:12:13;1.80;;;1.70;;
15848;SDS011;8024;48.708;9.394;2023-02-01T05:14:58;1.70;;;1.60;;
15848;SDS011;8024;48.708;9.394;2023-02-01T05:17:26;2.17;;;1.97;;
15848;SDS011;8024;48.708;9.394;2023-02-01T05:19:54;1.67;;;1.57;;
15848;SDS011;8024;48.708;9.394;2023-02-01T05:22:21;1.60;;;1.50;;
15848;SDS011;8024;48.708;9.394;2023-02-01T05:24:48;2.37;;;1.80;;
15848;SDS011;8024;48.708;9.394;2023-02-01T05:27:15;1.73;;;1.63;;
15848;SDS011;8024;48.708;9.394;2023-02-01T05:29:42;1.83;;;1.50;;
15848;SDS011;8024;48.708;9.394;2023-02-01T05:32:09;1.47;;;1.37;;
15848;SDS011;8024;48.708;9.394;2023-02-01T05:34:38;1.77;;;1.63;;
15848;SDS011;8024;48.708;9.394;2023-02-01T05:37:05;1.77;;;1.67;;
15848;SDS011;8024;48.708;9.394;2023-02-01T05:39:32;1.97;;;1.50;;
15848;SDS011;8024;48.708;9.394;2023-02-01T05:42:00;2.67;;;1.50;;
15848;SDS011;8024;48.708;9.394;2023-02-01T05:44:27;2.03;;;1.60;;
15848;SDS011;8024;48.708;9.394;2023-02-01T05:46:54;1.40;;;1.30;;
15848;SDS011;8024;48.708;9.394;2023-02-01T05:49:21;2.87;;;1.83;;
15848;SDS011;8024;48.708;9.394;2023-02-01T05:51:50;1.60;;;1.50;;
15848;SDS011;8024;48.708;9.394;2023-02-01T05:54:17;1.57;;;1.57;;
15848;SDS011;8024;48.708;9.394;2023-02-01T05:56:44;2.43;;;1.33;;
15848;SDS011;8024;48.708;9.394;2023-02-01T05:59:11;2.00;;;1.60;;
15848;SDS011;8024;48.708;9.394;2023-02-01T06:01:38;1.47;;;1.37;;
15848;SDS011;8024;48.708;9.394;2023-02-01T06:04:05;3.13;;;1.83;;
15848;SDS011;8024;48.708;9.394;2023-02-01T06:06:33;1.73;;;1.33;;
15848;SDS011;8024;48.708;9.394;2023-02-01T06:09:03;1.60;;;1.50;;
15848;SDS011;8024;48.708;9.394;2023-02-01T06:11:30;1.80;;;1.67;;
15848;SDS011;8024;48.708;9.394;2023-02-01T06:13:57;2.20;;;2.00;;
15848;SDS011;8024;48.708;9.394;2023-02-01T06:16:24;2.00;;;1.77;;
15848;SDS011;8024;48.708;9.394;2023-02-01T06:18:52;1.53;;;1.43;;
15848;SDS011;8024;48.708;9.394;2023-02-01T06:21:19;3.17;;;1.70;;
15848;SDS011;8024;48.708;9.394;2023-02-01T06:23:49;1.40;;;1.30;;
15848;SDS011;8024;48.708;9.394;2023-02-01T06:26:18;1.73;;;1.70;;
15848;SDS011;8024;48.708;9.394;2023-02-01T06:28:45;2.27;;;1.47;;
15848;SDS011;8024;48.708;9.394;2023-02-01T06:31:12;1.33;;;1.10;;
15848;SDS011;8024;48.708;9.394;2023-02-01T06:33:40;2.27;;;1.90;;
15848;SDS011;8024;48.708;9.394;2023-02-01T06:36:07;2.83;;;1.70;;
15848;SDS011;8024;48.708;9.394;2023-02-01T06:38:37;2.97;;;1.60;;
15848;SDS011;8024;48.708;9.394;2023-02-01T06:41:04;1.90;;;1.80;;
15848;SDS011;8024;48.708;9.394;2023-02-01T06:43:33;1.80;;;1.70;;
15848;SDS011;8024;48.708;9.394;2023-02-01T06:46:02;1.70;;;1.60;;
15848;SDS011;8024;48.708;9.394;2023-02-01T06:48:31;1.77;;;1.67;;
15848;SDS011;8024;48.708;9.394;2023-02-01T06:50:58;1.70;;;1.60;;
15848;SDS011;8024;48.708;9.394;2023-02-01T06:53:26;1.67;;;1.57;;
15848;SDS011;8024;48.708;9.394;2023-02-01T06:55:53;2.17;;;1.60;;
15848;SDS011;8024;48.708;9.394;2023-02-01T06:58:21;1.47;;;1.37;;
15848;SDS011;8024;48.708;9.394;2023-02-01T07:00:50;2.77;;;1.90;;
15848;SDS011;8024;48.708;9.394;2023-02-01T07:03:18;2.40;;;1.60;;
15848;SDS011;8024;48.708;9.394;2023-02-01T07:05:46;2.03;;;1.87;;
15848;SDS011;8024;48.708;9.394;2023-02-01T07:08:13;1.63;;;1.40;;
15848;SDS011;8024;48.708;9.394;2023-02-01T07:10:40;1.90;;;1.43;;
15848;SDS011;8024;48.708;9.394;2023-02-01T07:13:07;1.50;;;1.40;;
15848;SDS011;8024;48.708;9.394;2023-02-01T07:15:34;1.40;;;1.30;;
15848;SDS011;8024;48.708;9.394;2023-02-01T07:18:03;1.63;;;1.50;;
15848;SDS011;8024;48.708;9.394;2023-02-01T07:20:30;1.47;;;1.23;;
15848;SDS011;8024;48.708;9.394;2023-02-01T07:22:57;1.63;;;1.53;;
15848;SDS011;8024;48.708;9.394;2023-02-01T07:25:25;1.43;;;1.33;;
15848;SDS011;8024;48.708;9.394;2023-02-01T07:27:52;1.50;;;1.40;;
15848;SDS011;8024;48.708;9.394;2023-02-01T07:30:19;1.50;;;1.40;;
15848;SDS011;8024;48.708;9.394;2023-02-01T07:32:46;2.20;;;2.07;;
15848;SDS011;8024;48.708;9.394;2023-02-01T07:35:15;1.10;;;1.10;;
15848;SDS011;8024;48.708;9.394;2023-02-01T07:37:42;1.63;;;1.53;;
15848;SDS011;8024;48.708;9.394;2023-02-01T07:40:10;1.73;;;1.63;;
15848;SDS011;8024;48.708;9.394;2023-02-01T07:42:38;3.33;;;1.17;;
15848;SDS011;8024;48.708;9.394;2023-02-01T07:45:05;1.43;;;1.30;;
15848;SDS011;8024;48.708;9.394;2023-02-01T07:47:33;1.93;;;1.43;;
15848;SDS011;8024;48.708;9.394;2023-02-01T07:50:00;3.97;;;1.40;;
15848;SDS011;8024;48.708;9.394;2023-02-01T07:52:28;3.07;;;1.50;;
15848;SDS011;8024;48.708;9.394;2023-02-01T07:54:56;1.47;;;1.30;;
15848;SDS011;8024;48.708;9.394;2023-02-01T07:57:23;1.67;;;1.57;;
15848;SDS011;8024;48.708;9.394;2023-02-01T07:59:50;1.70;;;1.40;;
15848;SDS011;8024;48.708;9.394;2023-02-01T08:02:35;1.77;;;1.63;;
15848;SDS011;8024;48.708;9.394;2023-02-01T08:05:02;1.80;;;1.67;;
15848;SDS011;8024;48.708;9.394;2023-02-01T08:07:31;1.47;;;1.37;;
15848;SDS011;8024;48.708;9.394;2023-02-01T08:09:58;1.97;;;1.30;;
15848;SDS011;8024;48.708;9.394;2023-02-01T08:12:25;1.40;;;1.30;;
15848;SDS011;8024;48.708;9.394;2023-02-01T08:14:53;2.00;;;1.40;;
15848;SDS011;8024;48.708;9.394;2023-02-01T08:17:21;1.37;;;1.37;;
15848;SDS011;8024;48.708;9.394;2023-02-01T08:19:48;1.77;;;1.67;;
15848;SDS011;8024;48.708;9.394;2023-02-01T08:22:15;1.77;;;1.50;;
15848;SDS011;8024;48.708;9.394;2023-02-01T08:24:44;1.67;;;1.57;;
15848;SDS011;8024;48.708;9.394;2023-02-01T08:27:13;2.70;;;1.67;;
15848;SDS011;8024;48.708;9.394;2023-02-01T08:29:40;2.47;;;1.60;;
15848;SDS011;8024;48.708;9.394;2023-02-01T08:32:08;1.43;;;1.40;;
15848;SDS011;8024;48.708;9.394;2023-02-01T08:34:35;2.60;;;1.40;;
15848;SDS011;8024;48.708;9.394;2023-02-01T08:37:02;1.63;;;1.27;;
15848;SDS011;8024;48.708;9.394;2023-02-01T08:39:29;1.27;;;1.00;;
15848;SDS011;8024;48.708;9.394;2023-02-01T08:41:57;2.37;;;1.37;;
15848;SDS011;8024;48.708;9.394;2023-02-01T08:44:42;1.40;;;1.30;;
15848;SDS011;8024;48.708;9.394;2023-02-01T08:47:09;1.80;;;1.40;;
15848;SDS011;8024;48.708;9.394;2023-02-01T08:49:36;2.37;;;1.30;;
15848;SDS011;8024;48.708;9.394;2023-02-01T08:52:04;1.70;;;1.60;;
15848;SDS011;8024;48.708;9.394;2023-02-01T08:54:31;2.07;;;1.33;;
15848;SDS011;8024;48.708;9.394;2023-02-01T08:56:59;1.80;;;1.70;;
15848;SDS011;8024;48.708;9.394;2023-02-01T08:59:27;1.40;;;1.30;;
15848;SDS011;8024;48.708;9.394;2023-02-01T09:01:54;2.17;;;1.20;;
15848;SDS011;8024;48.708;9.394;2023-02-01T09:04:22;1.47;;;1.37;;
15848;SDS011;8024;48.708;9.394;2023-02-01T09:06:49;1.67;;;1.30;;
15848;SDS011;8024;48.708;9.394;2023-02-01T09:09:16;1.70;;;1.40;;
15848;SDS011;8024;48.708;9.394;2023-02-01T09:11:43;1.77;;;1.67;;
15848;SDS011;8024;48.708;9.394;2023-02-01T09:14:12;1.83;;;1.27;;
15848;SDS011;8024;48.708;9.394;2023-02-01T09:16:39;1.60;;;1.10;;
15848;SDS011;8024;48.708;9.394;2023-02-01T09:19:06;2.43;;;1.50;;
15848;SDS011;8024;48.708;9.394;2023-02-01T09:21:33;1.77;;;1.67;;
15848;SDS011;8024;48.708;9.394;2023-02-01T09:24:00;2.17;;;1.60;;
15848;SDS011;8024;48.708;9.394;2023-02-01T09:26:29;1.20;;;1.20;;
15848;SDS011;8024;48.708;9.394;2023-02-01T09:28:56;1.00;;;0.90;;
15848;SDS011;8024;48.708;9.394;2023-02-01T09:31:25;1.80;;;1.07;;
15848;SDS011;8024;48.708;9.394;2023-02-01T09:33:52;1.57;;;1.20;;
15848;SDS011;8024;48.708;9.394;2023-02-01T09:36:19;1.33;;;1.23;;
15848;SDS011;8024;48.708;9.394;2023-02-01T09:38:46;1.27;;;1.20;;
15848;SDS011;8024;48.708;9.394;2023-02-01T09:41:17;1.27;;;1.17;;
15848;SDS011;8024;48.708;9.394;2023-02-01T09:43:53;1.33;;;1.23;;
15848;SDS011;8024;48.708;9.394;2023-02-01T09:46:27;4.07;;;1.50;;
15848;SDS011;8024;48.708;9.394;2023-02-01T09:48:56;1.23;;;1.03;;
15848;SDS011;8024;48.708;9.394;2023-02-01T09:51:26;1.53;;;1.20;;
15848;SDS011;8024;48.708;9.394;2023-02-01T09:53:59;1.33;;;1.20;;
15848;SDS011;8024;48.708;9.394;2023-02-01T09:56:33;3.17;;;1.43;;
15848;SDS011;8024;48.708;9.394;2023-02-01T09:59:04;1.80;;;1.47;;
15848;SDS011;8024;48.708;9.394;2023-02-01T10:01:42;1.70;;;1.57;;
15848;SDS011;8024;48.708;9.394;2023-02-01T10:04:10;1.57;;;1.47;;
15848;SDS011;8024;48.708;9.394;2023-02-01T10:06:42;2.50;;;1.40;;
15848;SDS011;8024;48.708;9.394;2023-02-01T10:09:23;5.50;;;1.70;;
15848;SDS011;8024;48.708;9.394;2023-02-01T10:12:15;2.63;;;1.20;;
15848;SDS011;8024;48.708;9.394;2023-02-01T10:14:59;1.53;;;1.23;;
15848;SDS011;8024;48.708;9.394;2023-02-01T10:17:42;3.10;;;1.73;;
15848;SDS011;8024;48.708;9.394;2023-02-01T10:20:18;1.40;;;1.03;;
15848;SDS011;8024;48.708;9.394;2023-02-01T10:22:53;2.63;;;1.40;;
15848;SDS011;8024;48.708;9.394;2023-02-01T10:25:31;3.27;;;1.30;;
15848;SDS011;8024;48.708;9.394;2023-02-01T10:28:06;1.77;;;1.57;;
15848;SDS011;8024;48.708;9.394;2023-02-01T10:30:38;3.33;;;1.77;;
15848;SDS011;8024;48.708;9.394;2023-02-01T10:33:14;2.37;;;1.10;;
15848;SDS011;8024;48.708;9.394;2023-02-01T10:35:44;2.13;;;1.10;;
15848;SDS011;8024;48.708;9.394;2023-02-01T10:38:15;1.40;;;1.10;;
15848;SDS011;8024;48.708;9.394;2023-02-01T10:40:46;2.33;;;1.57;;
15848;SDS011;8024;48.708;9.394;2023-02-01T10:43:14;1.87;;;1.07;;
15848;SDS011;8024;48.708;9.394;2023-02-01T10:45:41;1.93;;;1.30;;
15848;SDS011;8024;48.708;9.394;2023-02-01T10:48:09;4.50;;;1.20;;
15848;SDS011;8024;48.708;9.394;2023-02-01T10:50:38;2.33;;;1.60;;
15848;SDS011;8024;48.708;9.394;2023-02-01T10:53:11;2.50;;;1.47;;
15848;SDS011;8024;48.708;9.394;2023-02-01T10:55:43;3.30;;;1.13;;
15848;SDS011;8024;48.708;9.394;2023-02-01T10:58:15;2.47;;;1.63;;
15848;SDS011;8024;48.708;9.394;2023-02-01T11:00:45;3.13;;;1.27;;
15848;SDS011;8024;48.708;9.394;2023-02-01T11:06:10;3.97;;;1.20;;
15848;SDS011;8024;48.708;9.394;2023-02-01T11:08:48;4.80;;;1.60;;
15848;SDS011;8024;48.708;9.394;2023-02-01T11:11:16;3.30;;;1.63;;
15848;SDS011;8024;48.708;9.394;2023-02-01T11:13:44;2.67;;;1.40;;
15848;SDS011;8024;48.708;9.394;2023-02-01T11:16:19;1.40;;;1.30;;
15848;SDS011;8024;48.708;9.394;2023-02-01T11:18:46;2.73;;;1.10;;
15848;SDS011;8024;48.708;9.394;2023-02-01T11:21:22;4.90;;;1.93;;
15848;SDS011;8024;48.708;9.394;2023-02-01T11:23:49;4.17;;;1.37;;
15848;SDS011;8024;48.708;9.394;2023-02-01T11:26:19;3.80;;;1.40;;
15848;SDS011;8024;48.708;9.394;2023-02-01T11:28:51;4.67;;;1.63;;
15848;SDS011;8024;48.708;9.394;2023-02-01T11:31:20;5.83;;;1.90;;
15848;SDS011;8024;48.708;9.394;2023-02-01T11:33:50;4.30;;;1.83;;
15848;SDS011;8024;48.708;9.394;2023-02-01T11:36:22;8.47;;;2.30;;
15848;SDS011;8024;48.708;9.394;2023-02-01T11:38:53;2.43;;;1.67;;
15848;SDS011;8024;48.708;9.394;2023-02-01T11:41:34;8.50;;;1.87;;
15848;SDS011;8024;48.708;9.394;2023-02-01T11:44:15;5.37;;;1.53;;
15848;SDS011;8024;48.708;9.394;2023-02-01T11:46:46;4.70;;;1.60;;
15848;SDS011;8024;48.708;9.394;2023-02-01T11:49:18;6.57;;;2.00;;
15848;SDS011;8024;48.708;9.394;2023-02-01T11:51:55;4.03;;;2.60;;
15848;SDS011;8024;48.708;9.394;2023-02-01T11:54:40;4.93;;;1.67;;
15848;SDS011;8024;48.708;9.394;2023-02-01T11:57:21;6.47;;;1.80;;
15848;SDS011;8024;48.708;9.394;2023-02-01T12:00:20;4.80;;;1.77;;
15848;SDS011;8024;48.708;9.394;2023-02-01T12:03:24;5.10;;;2.03;;
15848;SDS011;8024;48.708;9.394;2023-02-01T12:06:13;5.07;;;1.40;;
15848;SDS011;8024;48.708;9.394;2023-02-01T12:11:44;5.73;;;1.83;;
15848;SDS011;8024;48.708;9.394;2023-02-01T12:14:23;3.77;;;1.57;;
15848;SDS011;8024;48.708;9.394;2023-02-01T12:17:02;5.60;;;1.70;;
15848;SDS011;8024;48.708;9.394;2023-02-01T12:19:58;3.90;;;1.70;;
15848;SDS011;8024;48.708;9.394;2023-02-01T12:22:39;3.33;;;1.13;;
15848;SDS011;8024;48.708;9.394;2023-02-01T12:25:28;4.03;;;1.60;;
15848;SDS011;8024;48.708;9.394;2023-02-01T12:28:10;7.03;;;1.60;;
15848;SDS011;8024;48.708;9.394;2023-02-01T12:31:02;7.33;;;2.00;;
15848;SDS011;8024;48.708;9.394;2023-02-01T12:33:41;3.10;;;1.27;;
15848;SDS011;8024;48.708;9.394;2023-02-01T12:36:19;5.87;;;1.70;;
15848;SDS011;8024;48.708;9.394;2023-02-01T12:38:54;3.03;;;1.77;;
15848;SDS011;8024;48.708;9.394;2023-02-01T12:41:32;4.93;;;1.37;;
15848;SDS011;8024;48.708;9.394;2023-02-01T12:44:12;5.23;;;1.37;;
15848;SDS011;8024;48.708;9.394;2023-02-01T12:46:54;4.60;;;1.50;;
15848;SDS011;8024;48.708;9.394;2023-02-01T12:49:27;4.47;;;1.67;;
15848;SDS011;8024;48.708;9.394;2023-02-01T12:52:01;5.23;;;1.67;;
15848;SDS011;8024;48.708;9.394;2023-02-01T12:54:32;3.43;;;1.10;;
15848;SDS011;8024;48.708;9.394;2023-02-01T12:57:05;4.57;;;1.67;;
15848;SDS011;8024;48.708;9.394;2023-02-01T12:59:38;5.67;;;2.40;;
15848;SDS011;8024;48.708;9.394;2023-02-01T13:02:11;3.93;;;1.53;;
15848;SDS011;8024;48.708;9.394;2023-02-01T13:04:49;9.00;;;1.97;;
15848;SDS011;8024;48.708;9.394;2023-02-01T13:07:25;7.00;;;1.17;;
15848;SDS011;8024;48.708;9.394;2023-02-01T13:09:56;6.37;;;1.93;;
15848;SDS011;8024;48.708;9.394;2023-02-01T13:12:38;5.57;;;2.10;;
15848;SDS011;8024;48.708;9.394;2023-02-01T13:15:11;6.07;;;1.50;;
15848;SDS011;8024;48.708;9.394;2023-02-01T13:17:42;8.00;;;2.40;;
15848;SDS011;8024;48.708;9.394;2023-02-01T13:20:14;9.90;;;2.30;;
15848;SDS011;8024;48.708;9.394;2023-02-01T13:22:45;5.13;;;1.60;;
15848;SDS011;8024;48.708;9.394;2023-02-01T13:25:17;5.60;;;1.43;;
15848;SDS011;8024;48.708;9.394;2023-02-01T13:27:53;6.53;;;1.47;;
15848;SDS011;8024;48.708;9.394;2023-02-01T13:30:23;3.83;;;1.50;;
15848;SDS011;8024;48.708;9.394;2023-02-01T13:33:06;7.17;;;1.57;;
15848;SDS011;8024;48.708;9.394;2023-02-01T13:35:50;6.80;;;1.97;;
15848;SDS011;8024;48.708;9.394;2023-02-01T13:38:52;4.70;;;1.57;;
15848;SDS011;8024;48.708;9.394;2023-02-01T13:41:50;3.57;;;1.53;;
15848;SDS011;8024;48.708;9.394;2023-02-01T13:44:24;5.80;;;1.40;;
15848;SDS011;8024;48.708;9.394;2023-02-01T13:46:56;7.80;;;2.20;;
15848;SDS011;8024;48.708;9.394;2023-02-01T13:49:26;7.27;;;2.23;;
15848;SDS011;8024;48.708;9.394;2023-02-01T13:51:55;6.53;;;2.23;;
15848;SDS011;8024;48.708;9.394;2023-02-01T13:54:25;5.93;;;1.77;;
15848;SDS011;8024;48.708;9.394;2023-02-01T13:56:55;2.97;;;1.67;;
15848;SDS011;8024;48.708;9.394;2023-02-01T14:09:15;5.07;;;1.70;;
15848;SDS011;8024;48.708;9.394;2023-02-01T14:11:46;4.37;;;1.70;;
15848;SDS011;8024;48.708;9.394;2023-02-01T14:23:20;5.23;;;1.27;;
15848;SDS011;8024;48.708;9.394;2023-02-01T14:26:03;5.20;;;1.90;;
15848;SDS011;8024;48.708;9.394;2023-02-01T14:28:32;5.83;;;1.83;;
15848;SDS011;8024;48.708;9.394;2023-02-01T14:31:13;6.17;;;2.43;;
15848;SDS011;8024;48.708;9.394;2023-02-01T14:33:58;5.50;;;1.70;;
15848;SDS011;8024;48.708;9.394;2023-02-01T14:36:32;6.63;;;1.67;;
15848;SDS011;8024;48.708;9.394;2023-02-01T14:39:17;3.67;;;1.37;;
15848;SDS011;8024;48.708;9.394;2023-02-01T14:41:57;6.27;;;1.50;;
15848;SDS011;8024;48.708;9.394;2023-02-01T14:44:28;5.70;;;1.87;;
15848;SDS011;8024;48.708;9.394;2023-02-01T14:47:10;5.67;;;1.57;;
15848;SDS011;8024;48.708;9.394;2023-02-01T14:53:04;5.57;;;1.70;;
15848;SDS011;8024;48.708;9.394;2023-02-01T14:55:45;6.30;;;1.50;;
15848;SDS011;8024;48.708;9.394;2023-02-01T14:58:16;5.33;;;1.77;;
15848;SDS011;8024;48.708;9.394;2023-02-01T15:00:51;6.57;;;1.70;;
15848;SDS011;8024;48.708;9.394;2023-02-01T15:03:23;3.53;;;1.37;;
15848;SDS011;8024;48.708;9.394;2023-02-01T15:06:01;4.90;;;2.03;;
15848;SDS011;8024;48.708;9.394;2023-02-01T15:08:32;3.60;;;1.80;;
15848;SDS011;8024;48.708;9.394;2023-02-01T15:11:05;2.83;;;1.37;;
15848;SDS011;8024;48.708;9.394;2023-02-01T15:13:37;7.83;;;2.43;;
15848;SDS011;8024;48.708;9.394;2023-02-01T15:16:05;6.37;;;2.07;;
15848;SDS011;8024;48.708;9.394;2023-02-01T15:18:36;2.93;;;1.50;;
15848;SDS011;8024;48.708;9.394;2023-02-01T15:21:06;4.87;;;1.43;;
15848;SDS011;8024;48.708;9.394;2023-02-01T15:23:40;5.57;;;1.47;;
15848;SDS011;8024;48.708;9.394;2023-02-01T15:26:08;3.93;;;1.80;;
15848;SDS011;8024;48.708;9.394;2023-02-01T15:28:35;4.40;;;1.33;;
15848;SDS011;8024;48.708;9.394;2023-02-01T15:31:03;3.03;;;1.60;;
15848;SDS011;8024;48.708;9.394;2023-02-01T15:33:31;5.23;;;1.30;;
15848;SDS011;8024;48.708;9.394;2023-02-01T15:36:08;4.43;;;1.63;;
15848;SDS011;8024;48.708;9.394;2023-02-01T15:38:38;3.13;;;1.43;;
15848;SDS011;8024;48.708;9.394;2023-02-01T15:41:08;6.93;;;2.20;;
15848;SDS011;8024;48.708;9.394;2023-02-01T15:43:39;4.60;;;1.63;;
15848;SDS011;8024;48.708;9.394;2023-02-01T15:46:09;4.87;;;1.60;;
15848;SDS011;8024;48.708;9.394;2023-02-01T15:48:41;2.53;;;1.80;;
15848;SDS011;8024;48.708;9.394;2023-02-01T15:51:16;8.57;;;1.77;;
15848;SDS011;8024;48.708;9.394;2023-02-01T15:53:46;6.27;;;1.67;;
15848;SDS011;8024;48.708;9.394;2023-02-01T15:56:21;7.83;;;1.90;;
15848;SDS011;8024;48.708;9.394;2023-02-01T15:58:51;5.73;;;1.70;;
15848;SDS011;8024;48.708;9.394;2023-02-01T16:01:21;4.43;;;1.70;;
15848;SDS011;8024;48.708;9.394;2023-02-01T16:03:49;5.30;;;1.67;;
15848;SDS011;8024;48.708;9.394;2023-02-01T16:06:28;5.33;;;2.13;;